createdAt,value
2022-08-26T00:00:32.347Z,14
2022-08-26T00:01:32.348Z,15
2022-08-26T00:02:32.348Z,11
2022-08-26T00:03:32.349Z,13
2022-08-26T00:04:32.349Z,15
2022-08-26T00:05:32.372Z,15
2022-08-26T00:06:32.372Z,13
2022-08-26T00:07:32.373Z,13
2022-08-26T00:08:32.382Z,14
2022-08-26T00:09:32.374Z,14
2022-08-26T00:10:32.374Z,12
2022-08-26T00:11:32.375Z,16
2022-08-26T00:12:32.375Z,16
2022-08-26T00:13:32.376Z,15
2022-08-26T00:14:32.376Z,16
2022-08-26T00:15:32.354Z,14
2022-08-26T00:16:32.355Z,11
2022-08-26T00:17:32.355Z,14
2022-08-26T00:18:32.356Z,11
2022-08-26T00:19:32.356Z,10
2022-08-26T00:20:32.356Z,10
2022-08-26T00:21:32.379Z,12
2022-08-26T00:22:32.380Z,12
2022-08-26T00:23:32.380Z,11
2022-08-26T00:24:32.381Z,9
2022-08-26T00:25:32.381Z,8
2022-08-26T00:26:32.382Z,10
2022-08-26T00:27:32.382Z,9
2022-08-26T00:28:32.382Z,6
2022-08-26T00:29:32.383Z,8
2022-08-26T00:30:32.361Z,8
2022-08-26T00:31:32.361Z,7
2022-08-26T00:32:32.362Z,10
2022-08-26T00:33:32.362Z,11
2022-08-26T00:34:32.363Z,9
2022-08-26T00:35:32.363Z,8
2022-08-26T00:36:32.386Z,7
2022-08-26T00:37:32.386Z,9
2022-08-26T00:38:32.387Z,9
2022-08-26T00:39:32.387Z,8
2022-08-26T00:40:32.388Z,8
2022-08-26T00:41:32.388Z,9
2022-08-26T00:42:32.389Z,8
2022-08-26T00:43:32.389Z,7
2022-08-26T00:44:32.390Z,11
2022-08-26T00:45:32.368Z,12
2022-08-26T00:46:32.368Z,10
2022-08-26T00:47:32.369Z,10
2022-08-26T00:48:39.622Z,13
2022-08-26T00:49:32.370Z,10
2022-08-26T00:50:32.370Z,12
2022-08-26T00:51:32.393Z,11
2022-08-26T00:52:32.393Z,10
2022-08-26T00:53:32.394Z,11
2022-08-26T00:54:32.394Z,11
2022-08-26T00:55:32.395Z,11
2022-08-26T00:56:32.395Z,10
2022-08-26T00:57:32.396Z,10
2022-08-26T00:58:32.396Z,12
2022-08-26T00:59:32.397Z,12
2022-08-26T01:00:32.374Z,10
2022-08-26T01:01:32.375Z,11
2022-08-26T01:02:32.375Z,12
2022-08-26T01:03:32.376Z,11
2022-08-26T01:04:32.376Z,12
2022-08-26T01:05:32.377Z,10
2022-08-26T01:06:32.399Z,12
2022-08-26T01:07:32.400Z,12
2022-08-26T01:08:32.400Z,12
2022-08-26T01:09:32.401Z,12
2022-08-26T01:10:32.401Z,13
2022-08-26T01:11:32.402Z,11
2022-08-26T01:12:32.442Z,10
2022-08-26T01:13:32.403Z,10
2022-08-26T01:14:32.403Z,10
2022-08-26T01:15:32.404Z,9
2022-08-26T01:16:32.382Z,12
2022-08-26T01:17:32.382Z,10
2022-08-26T01:18:32.382Z,10
2022-08-26T01:19:32.383Z,11
2022-08-26T01:20:32.383Z,12
2022-08-26T01:21:32.384Z,7
2022-08-26T01:22:32.407Z,7
2022-08-26T01:23:32.407Z,8
2022-08-26T01:24:32.408Z,9
2022-08-26T01:25:32.408Z,8
2022-08-26T01:26:32.408Z,7
2022-08-26T01:27:32.409Z,7
2022-08-26T01:28:32.409Z,10
2022-08-26T01:29:32.410Z,7
2022-08-26T01:30:32.410Z,8
2022-08-26T01:31:32.388Z,7
2022-08-26T01:32:32.389Z,7
2022-08-26T01:33:32.389Z,7
2022-08-26T01:34:32.390Z,8
2022-08-26T01:35:32.390Z,10
2022-08-26T01:36:32.390Z,10
2022-08-26T01:37:32.413Z,7
2022-08-26T01:38:32.414Z,8
2022-08-26T01:39:32.414Z,9
2022-08-26T01:40:32.415Z,9
2022-08-26T01:41:32.415Z,10
2022-08-26T01:42:32.415Z,10
2022-08-26T01:43:32.416Z,9
2022-08-26T01:44:32.417Z,9
2022-08-26T01:45:32.417Z,8
2022-08-26T01:46:32.395Z,11
2022-08-26T01:47:32.395Z,8
2022-08-26T01:48:37.385Z,9
2022-08-26T01:49:32.396Z,10
2022-08-26T01:50:32.397Z,9
2022-08-26T01:51:32.419Z,10
2022-08-26T01:52:32.420Z,10
2022-08-26T01:53:32.420Z,9
2022-08-26T01:54:32.485Z,11
2022-08-26T01:55:32.421Z,9
2022-08-26T01:56:32.422Z,12
2022-08-26T01:57:32.422Z,10
2022-08-26T01:58:32.423Z,11
2022-08-26T01:59:32.423Z,13
2022-08-26T02:00:32.423Z,9
2022-08-26T02:01:32.401Z,11
2022-08-26T02:02:32.402Z,9
2022-08-26T02:03:32.402Z,10
2022-08-26T02:04:32.403Z,12
2022-08-26T02:05:32.403Z,9
2022-08-26T02:06:32.403Z,10
2022-08-26T02:07:32.426Z,12
2022-08-26T02:08:32.427Z,11
2022-08-26T02:09:32.427Z,12
2022-08-26T02:10:32.428Z,12
2022-08-26T02:11:32.428Z,13
2022-08-26T02:12:32.429Z,12
2022-08-26T02:13:32.429Z,11
2022-08-26T02:14:32.429Z,13
2022-08-26T02:15:32.430Z,12
2022-08-26T02:16:32.408Z,10
2022-08-26T02:17:32.408Z,12
2022-08-26T02:18:32.409Z,12
2022-08-26T02:19:32.409Z,11
2022-08-26T02:20:32.410Z,10
2022-08-26T02:21:32.410Z,11
2022-08-26T02:22:32.433Z,12
2022-08-26T02:23:32.433Z,11
2022-08-26T02:24:32.434Z,11
2022-08-26T02:25:32.434Z,11
2022-08-26T02:26:32.435Z,10
2022-08-26T02:27:32.435Z,10
2022-08-26T02:28:32.435Z,10
2022-08-26T02:29:32.436Z,10
2022-08-26T02:30:32.436Z,12
2022-08-26T02:31:32.502Z,11
2022-08-26T02:32:32.415Z,12
2022-08-26T02:33:32.415Z,13
2022-08-26T02:34:32.438Z,13
2022-08-26T02:35:32.416Z,13
2022-08-26T02:36:32.416Z,11
2022-08-26T02:37:32.449Z,10
2022-08-26T02:38:32.440Z,11
2022-08-26T02:39:32.440Z,13
2022-08-26T02:40:32.457Z,10
2022-08-26T02:42:32.441Z,12
2022-08-26T02:43:32.442Z,10
2022-08-26T02:44:32.442Z,10
2022-08-26T02:45:32.443Z,10
2022-08-26T02:46:32.443Z,9
2022-08-26T02:47:32.421Z,10
2022-08-26T02:48:32.422Z,12
2022-08-26T02:49:32.444Z,10
2022-08-26T02:50:32.422Z,11
2022-08-26T02:51:32.423Z,9
2022-08-26T02:52:32.423Z,11
2022-08-26T02:53:32.446Z,11
2022-08-26T02:54:32.447Z,12
2022-08-26T02:55:32.447Z,9
2022-08-26T02:56:32.447Z,12
2022-08-26T02:57:32.448Z,10
2022-08-26T02:58:32.448Z,10
2022-08-26T02:59:32.449Z,11
2022-08-26T03:00:32.449Z,13
2022-08-26T03:01:32.467Z,11
2022-08-26T03:02:32.428Z,12
2022-08-26T03:03:32.428Z,6
2022-08-26T03:04:32.451Z,7
2022-08-26T03:05:32.429Z,7
2022-08-26T03:06:32.429Z,9
2022-08-26T03:07:32.462Z,9
2022-08-26T03:08:32.452Z,8
2022-08-26T03:09:32.453Z,9
2022-08-26T03:10:32.453Z,11
2022-08-26T03:11:32.454Z,11
2022-08-26T03:12:32.454Z,10
2022-08-26T03:13:32.455Z,10
2022-08-26T03:14:32.455Z,10
2022-08-26T03:15:32.456Z,8
2022-08-26T03:16:32.433Z,9
2022-08-26T03:17:32.434Z,6
2022-08-26T03:18:32.434Z,6
2022-08-26T03:19:32.435Z,5
2022-08-26T03:20:32.435Z,6
2022-08-26T03:21:32.436Z,7
2022-08-26T03:22:32.458Z,9
2022-08-26T03:23:32.459Z,8
2022-08-26T03:24:32.459Z,10
2022-08-26T03:25:32.460Z,8
2022-08-26T03:26:32.460Z,9
2022-08-26T03:27:32.460Z,9
2022-08-26T03:28:32.461Z,10
2022-08-26T03:29:32.461Z,10
2022-08-26T03:30:32.462Z,11
2022-08-26T03:31:32.479Z,10
2022-08-26T03:32:32.440Z,10
2022-08-26T03:33:32.441Z,10
2022-08-26T03:34:32.463Z,12
2022-08-26T03:35:32.441Z,14
2022-08-26T03:36:32.442Z,13
2022-08-26T03:37:32.476Z,12
2022-08-26T03:38:32.465Z,14
2022-08-26T03:39:32.465Z,14
2022-08-26T03:40:32.482Z,17
2022-08-26T03:41:32.466Z,14
2022-08-26T03:42:32.467Z,14
2022-08-26T03:43:32.467Z,15
2022-08-26T03:44:32.468Z,15
2022-08-26T03:45:32.468Z,13
2022-08-26T03:46:32.469Z,13
2022-08-26T03:47:32.446Z,13
2022-08-26T03:48:32.447Z,16
2022-08-26T03:49:32.447Z,16
2022-08-26T03:50:32.448Z,17
2022-08-26T03:51:32.448Z,17
2022-08-26T03:52:32.449Z,14
2022-08-26T03:53:32.471Z,14
2022-08-26T03:54:32.472Z,17
2022-08-26T03:55:32.472Z,15
2022-08-26T03:56:32.473Z,16
2022-08-26T03:57:32.473Z,13
2022-08-26T03:58:32.473Z,13
2022-08-26T03:59:32.474Z,11
2022-08-26T04:00:32.474Z,11
2022-08-26T04:01:32.475Z,12
2022-08-26T04:02:32.453Z,10
2022-08-26T04:03:32.453Z,14
2022-08-26T04:04:32.453Z,13
2022-08-26T04:05:32.454Z,11
2022-08-26T04:06:32.454Z,13
2022-08-26T04:07:32.455Z,12
2022-08-26T04:08:32.477Z,12
2022-08-26T04:09:32.478Z,16
2022-08-26T04:10:32.478Z,16
2022-08-26T04:11:32.479Z,16
2022-08-26T04:12:32.479Z,16
2022-08-26T04:13:32.480Z,18
2022-08-26T04:14:32.480Z,19
2022-08-26T04:15:32.481Z,17
2022-08-26T04:16:32.481Z,12
2022-08-26T04:17:32.459Z,10
2022-08-26T04:18:32.459Z,16
2022-08-26T04:19:32.460Z,13
2022-08-26T04:20:32.460Z,15
2022-08-26T04:21:32.461Z,14
2022-08-26T04:22:32.461Z,14
2022-08-26T04:23:32.484Z,16
2022-08-26T04:24:32.484Z,12
2022-08-26T04:25:32.485Z,8
2022-08-26T04:26:32.485Z,13
2022-08-26T04:27:32.485Z,12
2022-08-26T04:28:32.486Z,11
2022-08-26T04:29:32.486Z,11
2022-08-26T04:30:32.487Z,11
2022-08-26T04:31:32.487Z,12
2022-08-26T04:32:32.465Z,13
2022-08-26T04:33:32.465Z,11
2022-08-26T04:34:32.466Z,11
2022-08-26T04:35:32.466Z,14
2022-08-26T04:36:32.467Z,12
2022-08-26T04:37:32.467Z,14
2022-08-26T04:38:32.490Z,14
2022-08-26T04:39:32.490Z,15
2022-08-26T04:40:32.491Z,15
2022-08-26T04:41:32.491Z,15
2022-08-26T04:42:32.492Z,14
2022-08-26T04:43:32.492Z,14
2022-08-26T04:44:32.492Z,14
2022-08-26T04:45:32.493Z,17
2022-08-26T04:46:32.493Z,15
2022-08-26T04:47:32.471Z,15
2022-08-26T04:48:32.472Z,14
2022-08-26T04:49:32.472Z,17
2022-08-26T04:50:32.472Z,15
2022-08-26T04:51:32.473Z,12
2022-08-26T04:52:32.473Z,14
2022-08-26T04:53:32.496Z,14
2022-08-26T04:54:32.496Z,20
2022-08-26T04:55:32.497Z,13
2022-08-26T04:56:32.497Z,13
2022-08-26T04:57:32.498Z,11
2022-08-26T04:58:32.498Z,16
2022-08-26T04:59:32.523Z,20
2022-08-26T05:00:32.499Z,17
2022-08-26T05:01:32.499Z,12
2022-08-26T05:02:32.500Z,22
2022-08-26T05:03:32.478Z,16
2022-08-26T05:04:32.478Z,20
2022-08-26T05:05:32.479Z,18
2022-08-26T05:06:32.479Z,20
2022-08-26T05:07:32.479Z,22
2022-08-26T05:08:32.480Z,22
2022-08-26T05:09:32.503Z,21
2022-08-26T05:10:32.503Z,19
2022-08-26T05:11:32.503Z,27
2022-08-26T05:12:32.504Z,22
2022-08-26T05:13:32.504Z,19
2022-08-26T05:14:32.569Z,22
2022-08-26T05:15:32.505Z,24
2022-08-26T05:16:32.506Z,19
2022-08-26T05:17:32.547Z,24
2022-08-26T05:18:32.484Z,24
2022-08-26T05:19:32.484Z,21
2022-08-26T05:20:32.485Z,21
2022-08-26T05:21:32.485Z,24
2022-08-26T05:22:32.486Z,22
2022-08-26T05:23:32.486Z,22
2022-08-26T05:24:32.509Z,25
2022-08-26T05:25:32.509Z,23
2022-08-26T05:26:32.518Z,30
2022-08-26T05:27:32.510Z,28
2022-08-26T05:28:32.511Z,25
2022-08-26T05:29:32.511Z,23
2022-08-26T05:30:32.511Z,25
2022-08-26T05:31:32.512Z,24
2022-08-26T05:32:32.512Z,28
2022-08-26T05:33:32.490Z,25
2022-08-26T05:34:32.490Z,26
2022-08-26T05:35:32.491Z,26
2022-08-26T05:36:32.491Z,23
2022-08-26T05:37:32.492Z,23
2022-08-26T05:38:32.492Z,19
2022-08-26T05:39:32.515Z,22
2022-08-26T05:40:32.515Z,28
2022-08-26T05:41:32.516Z,27
2022-08-26T05:42:32.517Z,23
2022-08-26T05:43:32.517Z,26
2022-08-26T05:44:32.517Z,23
2022-08-26T05:45:32.518Z,34
2022-08-26T05:46:32.518Z,33
2022-08-26T05:47:32.518Z,32
2022-08-26T05:48:32.496Z,27
2022-08-26T05:49:32.497Z,29
2022-08-26T05:50:32.497Z,31
2022-08-26T05:51:32.498Z,31
2022-08-26T05:52:32.498Z,29
2022-08-26T05:53:32.498Z,30
2022-08-26T05:54:32.521Z,32
2022-08-26T05:55:32.522Z,27
2022-08-26T05:56:32.522Z,35
2022-08-26T05:57:32.523Z,32
2022-08-26T05:58:32.523Z,24
2022-08-26T05:59:32.523Z,20
2022-08-26T06:00:32.524Z,28
2022-08-26T06:01:32.524Z,27
2022-08-26T06:02:32.525Z,23
2022-08-26T06:03:32.550Z,26
2022-08-26T06:04:32.503Z,28
2022-08-26T06:05:32.503Z,22
2022-08-26T06:06:32.504Z,20
2022-08-26T06:07:32.504Z,23
2022-08-26T06:08:32.505Z,31
2022-08-26T06:09:32.528Z,24
2022-08-26T06:10:32.528Z,23
2022-08-26T06:11:32.528Z,28
2022-08-26T06:12:32.529Z,26
2022-08-26T06:13:32.530Z,29
2022-08-26T06:14:32.530Z,25
2022-08-26T06:15:32.530Z,28
2022-08-26T06:16:32.531Z,26
2022-08-26T06:17:32.531Z,26
2022-08-26T06:18:32.509Z,26
2022-08-26T06:19:32.509Z,32
2022-08-26T06:20:32.510Z,30
2022-08-26T06:21:32.510Z,31
2022-08-26T06:22:32.511Z,25
2022-08-26T06:23:32.511Z,27
2022-08-26T06:24:32.534Z,26
2022-08-26T06:25:32.534Z,27
2022-08-26T06:26:32.535Z,23
2022-08-26T06:27:32.536Z,29
2022-08-26T06:28:32.536Z,27
2022-08-26T06:29:32.536Z,25
2022-08-26T06:30:32.578Z,29
2022-08-26T06:31:32.537Z,25
2022-08-26T06:32:32.538Z,22
2022-08-26T06:33:32.538Z,24
2022-08-26T06:34:32.516Z,35
2022-08-26T06:35:32.517Z,27
2022-08-26T06:36:32.517Z,25
2022-08-26T06:37:32.517Z,23
2022-08-26T06:38:32.518Z,22
2022-08-26T06:39:32.518Z,27
2022-08-26T06:40:32.541Z,23
2022-08-26T06:41:32.542Z,28
2022-08-26T06:42:32.542Z,30
2022-08-26T06:43:32.543Z,27
2022-08-26T06:44:32.543Z,31
2022-08-26T06:45:32.544Z,31
2022-08-26T06:46:32.544Z,28
2022-08-26T06:47:32.545Z,24
2022-08-26T06:48:32.545Z,25
2022-08-26T06:49:32.523Z,31
2022-08-26T06:50:32.523Z,30
2022-08-26T06:51:32.524Z,29
2022-08-26T06:52:32.524Z,33
2022-08-26T06:53:32.525Z,33
2022-08-26T06:54:32.525Z,36
2022-08-26T06:55:32.548Z,36
2022-08-26T06:56:32.549Z,39
2022-08-26T06:57:32.549Z,38
2022-08-26T06:58:32.550Z,44
2022-08-26T06:59:32.550Z,42
2022-08-26T07:00:32.551Z,47
2022-08-26T07:01:32.551Z,46
2022-08-26T07:02:32.552Z,41
2022-08-26T07:03:32.552Z,44
2022-08-26T07:04:32.530Z,40
2022-08-26T07:05:32.531Z,41
2022-08-26T07:06:32.531Z,55
2022-08-26T07:07:32.532Z,49
2022-08-26T07:08:32.532Z,53
2022-08-26T07:09:32.533Z,46
2022-08-26T07:10:32.555Z,45
2022-08-26T07:11:32.556Z,42
2022-08-26T07:12:32.556Z,40
2022-08-26T07:13:32.557Z,42
2022-08-26T07:14:32.557Z,41
2022-08-26T07:15:32.558Z,45
2022-08-26T07:16:32.559Z,39
2022-08-26T07:17:32.559Z,38
2022-08-26T07:18:32.560Z,39
2022-08-26T07:19:32.537Z,31
2022-08-26T07:20:32.538Z,31
2022-08-26T07:21:32.539Z,33
2022-08-26T07:22:32.539Z,34
2022-08-26T07:23:32.539Z,38
2022-08-26T07:24:32.540Z,40
2022-08-26T07:25:32.563Z,42
2022-08-26T07:26:32.563Z,42
2022-08-26T07:27:32.564Z,45
2022-08-26T07:28:32.564Z,48
2022-08-26T07:29:32.565Z,46
2022-08-26T07:30:32.565Z,51
2022-08-26T07:31:32.566Z,44
2022-08-26T07:32:32.566Z,48
2022-08-26T07:33:32.567Z,46
2022-08-26T07:34:32.608Z,43
2022-08-26T07:35:32.545Z,48
2022-08-26T07:36:32.546Z,46
2022-08-26T07:37:32.547Z,43
2022-08-26T07:38:32.547Z,48
2022-08-26T07:39:32.548Z,40
2022-08-26T07:40:32.548Z,41
2022-08-26T07:41:32.571Z,43
2022-08-26T07:42:32.572Z,40
2022-08-26T07:43:32.612Z,46
2022-08-26T07:44:32.572Z,41
2022-08-26T07:45:32.573Z,38
2022-08-26T07:46:32.573Z,48
2022-08-26T07:47:32.574Z,44
2022-08-26T07:48:32.575Z,51
2022-08-26T07:49:32.575Z,52
2022-08-26T07:50:32.553Z,55
2022-08-26T07:51:32.554Z,49
2022-08-26T07:52:32.554Z,53
2022-08-26T07:53:32.555Z,45
2022-08-26T07:54:32.555Z,50
2022-08-26T07:55:32.556Z,53
2022-08-26T07:56:32.579Z,48
2022-08-26T07:57:32.579Z,46
2022-08-26T07:58:32.580Z,46
2022-08-26T07:59:32.580Z,44
2022-08-26T08:00:32.581Z,39
2022-08-26T08:01:32.581Z,37
2022-08-26T08:02:32.582Z,45
2022-08-26T08:03:32.583Z,41
2022-08-26T08:04:32.583Z,45
2022-08-26T08:05:32.561Z,39
2022-08-26T08:06:32.562Z,49
2022-08-26T08:07:32.562Z,46
2022-08-26T08:08:32.563Z,36
2022-08-26T08:09:32.564Z,38
2022-08-26T08:10:32.599Z,47
2022-08-26T08:11:32.587Z,42
2022-08-26T08:12:32.588Z,39
2022-08-26T08:13:32.604Z,50
2022-08-26T08:14:32.589Z,55
2022-08-26T08:15:32.589Z,47
2022-08-26T08:16:32.590Z,50
2022-08-26T08:17:32.590Z,45
2022-08-26T08:18:32.591Z,45
2022-08-26T08:19:32.592Z,48
2022-08-26T08:20:32.570Z,40
2022-08-26T08:21:32.570Z,50
2022-08-26T08:22:32.571Z,47
2022-08-26T08:23:32.571Z,46
2022-08-26T08:24:32.572Z,55
2022-08-26T08:25:32.572Z,48
2022-08-26T08:26:32.596Z,53
2022-08-26T08:27:32.596Z,48
2022-08-26T08:28:32.597Z,52
2022-08-26T08:29:32.597Z,51
2022-08-26T08:30:32.598Z,52
2022-08-26T08:31:32.598Z,47
2022-08-26T08:32:32.599Z,35
2022-08-26T08:33:32.600Z,35
2022-08-26T08:34:32.600Z,26
2022-08-26T08:35:32.578Z,34
2022-08-26T08:36:32.579Z,37
2022-08-26T08:37:32.579Z,36
2022-08-26T08:38:32.580Z,37
2022-08-26T08:39:32.581Z,39
2022-08-26T08:40:32.581Z,36
2022-08-26T08:41:32.604Z,46
2022-08-26T08:42:32.605Z,40
2022-08-26T08:43:32.606Z,40
2022-08-26T08:44:32.606Z,43
2022-08-26T08:45:32.606Z,39
2022-08-26T08:46:32.607Z,43
2022-08-26T08:47:32.608Z,37
2022-08-26T08:48:32.608Z,38
2022-08-26T08:49:32.609Z,40
2022-08-26T08:50:32.587Z,40
2022-08-26T08:51:32.588Z,36
2022-08-26T08:52:32.588Z,40
2022-08-26T08:53:32.589Z,33
2022-08-26T08:54:32.589Z,35
2022-08-26T08:55:32.590Z,40
2022-08-26T08:56:32.613Z,46
2022-08-26T08:57:32.614Z,46
2022-08-26T08:58:32.614Z,36
2022-08-26T08:59:32.615Z,39
2022-08-26T09:00:32.615Z,40
2022-08-26T09:01:32.616Z,42
2022-08-26T09:02:32.641Z,42
2022-08-26T09:03:32.617Z,47
2022-08-26T09:04:32.618Z,40
2022-08-26T09:05:32.618Z,38
2022-08-26T09:06:32.596Z,40
2022-08-26T09:07:32.597Z,51
2022-08-26T09:08:32.598Z,42
2022-08-26T09:09:33.627Z,53
2022-08-26T09:10:32.599Z,52
2022-08-26T09:11:32.622Z,51
2022-08-26T09:12:32.622Z,58
2022-08-26T09:13:32.623Z,53
2022-08-26T09:14:32.624Z,55
2022-08-26T09:15:32.624Z,63
2022-08-26T09:16:32.625Z,66
2022-08-26T09:17:32.625Z,58
2022-08-26T09:18:32.626Z,56
2022-08-26T09:19:32.627Z,54
2022-08-26T09:20:32.605Z,57
2022-08-26T09:21:32.605Z,56
2022-08-26T09:22:32.606Z,61
2022-08-26T09:23:32.607Z,63
2022-08-26T09:24:32.607Z,54
2022-08-26T09:25:32.608Z,60
2022-08-26T09:26:32.631Z,57
2022-08-26T09:27:32.631Z,66
2022-08-26T09:28:32.632Z,57
2022-08-26T09:29:32.632Z,55
2022-08-26T09:30:32.633Z,69
2022-08-26T09:31:32.634Z,51
2022-08-26T09:32:32.674Z,40
2022-08-26T09:33:32.635Z,44
2022-08-26T09:34:32.636Z,43
2022-08-26T09:35:32.636Z,48
2022-08-26T09:36:32.614Z,50
2022-08-26T09:37:32.615Z,52
2022-08-26T09:38:32.615Z,48
2022-08-26T09:39:32.616Z,38
2022-08-26T09:40:32.617Z,48
2022-08-26T09:41:32.617Z,41
2022-08-26T09:42:32.640Z,30
2022-08-26T09:43:32.641Z,28
2022-08-26T09:44:32.641Z,35
2022-08-26T09:45:32.642Z,38
2022-08-26T09:46:32.643Z,37
2022-08-26T09:47:32.643Z,31
2022-08-26T09:48:32.644Z,31
2022-08-26T09:49:32.645Z,34
2022-08-26T09:50:32.645Z,37
2022-08-26T09:51:32.623Z,39
2022-08-26T09:52:32.624Z,46
2022-08-26T09:53:32.624Z,50
2022-08-26T09:54:32.625Z,56
2022-08-26T09:55:32.626Z,53
2022-08-26T09:56:32.626Z,60
2022-08-26T09:57:32.649Z,61
2022-08-26T09:58:32.650Z,63
2022-08-26T09:59:32.650Z,59
2022-08-26T10:00:32.651Z,57
2022-08-26T10:01:32.652Z,58
2022-08-26T10:02:32.652Z,48
2022-08-26T10:03:32.653Z,60
2022-08-26T10:04:32.654Z,58
2022-08-26T10:05:32.654Z,68
2022-08-26T10:06:32.632Z,67
2022-08-26T10:07:32.633Z,61
2022-08-26T10:08:32.633Z,46
2022-08-26T10:09:39.642Z,48
2022-08-26T10:10:32.635Z,46
2022-08-26T10:11:32.635Z,50
2022-08-26T10:12:32.658Z,52
2022-08-26T10:13:32.659Z,51
2022-08-26T10:14:32.659Z,51
2022-08-26T10:15:32.660Z,54
2022-08-26T10:16:32.661Z,55
2022-08-26T10:17:32.661Z,47
2022-08-26T10:18:32.662Z,42
2022-08-26T10:19:32.662Z,46
2022-08-26T10:20:32.663Z,44
2022-08-26T10:21:32.641Z,50
2022-08-26T10:22:32.642Z,58
2022-08-26T10:23:32.642Z,63
2022-08-26T10:24:32.643Z,55
2022-08-26T10:25:32.643Z,50
2022-08-26T10:26:32.644Z,50
2022-08-26T10:27:32.667Z,60
2022-08-26T10:28:32.667Z,44
2022-08-26T10:29:32.668Z,54
2022-08-26T10:30:32.669Z,60
2022-08-26T10:31:32.669Z,49
2022-08-26T10:32:32.670Z,43
2022-08-26T10:33:32.670Z,44
2022-08-26T10:34:32.671Z,46
2022-08-26T10:35:32.671Z,45
2022-08-26T10:36:32.697Z,54
2022-08-26T10:37:32.650Z,54
2022-08-26T10:38:32.650Z,52
2022-08-26T10:39:32.651Z,46
2022-08-26T10:40:32.652Z,48
2022-08-26T10:41:32.652Z,53
2022-08-26T10:42:32.675Z,53
2022-08-26T10:43:32.676Z,50
2022-08-26T10:44:32.676Z,52
2022-08-26T10:45:32.685Z,66
2022-08-26T10:46:32.677Z,52
2022-08-26T10:47:32.678Z,51
2022-08-26T10:48:32.679Z,48
2022-08-26T10:49:32.679Z,48
2022-08-26T10:50:32.680Z,51
2022-08-26T10:51:32.680Z,49
2022-08-26T10:52:32.658Z,42
2022-08-26T10:53:32.659Z,43
2022-08-26T10:54:32.659Z,50
2022-08-26T10:55:32.660Z,53
2022-08-26T10:56:32.660Z,51
2022-08-26T10:57:32.661Z,52
2022-08-26T10:58:32.684Z,55
2022-08-26T10:59:32.684Z,56
2022-08-26T11:00:32.685Z,51
2022-08-26T11:01:32.685Z,47
2022-08-26T11:02:32.686Z,43
2022-08-26T11:03:32.686Z,45
2022-08-26T11:04:32.687Z,51
2022-08-26T11:05:32.688Z,47
2022-08-26T11:06:32.688Z,55
2022-08-26T11:07:32.666Z,52
2022-08-26T11:08:32.667Z,55
2022-08-26T11:09:37.394Z,54
2022-08-26T11:10:32.668Z,58
2022-08-26T11:11:32.668Z,56
2022-08-26T11:12:32.691Z,51
2022-08-26T11:13:32.692Z,50
2022-08-26T11:14:32.693Z,52
2022-08-26T11:15:32.693Z,56
2022-08-26T11:16:32.694Z,55
2022-08-26T11:17:32.694Z,50
2022-08-26T11:18:32.759Z,53
2022-08-26T11:19:32.695Z,55
2022-08-26T11:20:32.696Z,53
2022-08-26T11:21:32.737Z,52
2022-08-26T11:22:32.674Z,51
2022-08-26T11:23:32.675Z,48
2022-08-26T11:24:32.676Z,48
2022-08-26T11:25:32.676Z,47
2022-08-26T11:26:32.677Z,47
2022-08-26T11:27:32.677Z,47
2022-08-26T11:28:32.700Z,42
2022-08-26T11:29:32.701Z,46
2022-08-26T11:30:32.710Z,50
2022-08-26T11:31:32.702Z,41
2022-08-26T11:32:32.703Z,43
2022-08-26T11:33:32.703Z,43
2022-08-26T11:34:32.704Z,51
2022-08-26T11:35:32.704Z,43
2022-08-26T11:36:32.705Z,47
2022-08-26T11:37:32.683Z,41
2022-08-26T11:38:32.683Z,48
2022-08-26T11:39:32.684Z,47
2022-08-26T11:40:32.684Z,48
2022-08-26T11:41:32.685Z,48
2022-08-26T11:42:32.686Z,46
2022-08-26T11:43:32.709Z,33
2022-08-26T11:44:32.709Z,39
2022-08-26T11:45:32.710Z,50
2022-08-26T11:46:32.710Z,46
2022-08-26T11:47:32.711Z,39
2022-08-26T11:48:32.711Z,37
2022-08-26T11:49:32.712Z,49
2022-08-26T11:50:32.713Z,50
2022-08-26T11:51:32.713Z,55
2022-08-26T11:52:32.691Z,53
2022-08-26T11:53:32.692Z,60
2022-08-26T11:54:32.693Z,48
2022-08-26T11:55:32.693Z,50
2022-08-26T11:56:32.694Z,53
2022-08-26T11:57:32.694Z,64
2022-08-26T11:58:32.717Z,48
2022-08-26T11:59:32.718Z,48
2022-08-26T12:00:32.718Z,55
2022-08-26T12:01:32.719Z,51
2022-08-26T12:02:32.720Z,62
2022-08-26T12:03:32.720Z,61
2022-08-26T12:04:32.721Z,59
2022-08-26T12:05:32.722Z,59
2022-08-26T12:06:32.722Z,54
2022-08-26T12:07:32.700Z,54
2022-08-26T12:08:32.701Z,54
2022-08-26T12:09:32.701Z,57
2022-08-26T12:10:32.702Z,70
2022-08-26T12:11:32.703Z,56
2022-08-26T12:12:32.703Z,56
2022-08-26T12:13:32.726Z,53
2022-08-26T12:14:32.727Z,56
2022-08-26T12:15:32.727Z,59
2022-08-26T12:16:32.728Z,53
2022-08-26T12:17:32.729Z,48
2022-08-26T12:18:32.729Z,52
2022-08-26T12:19:32.730Z,50
2022-08-26T12:20:32.731Z,51
2022-08-26T12:21:32.731Z,54
2022-08-26T12:22:32.709Z,54
2022-08-26T12:23:32.710Z,53
2022-08-26T12:24:32.710Z,58
2022-08-26T12:25:32.711Z,51
2022-08-26T12:26:32.712Z,67
2022-08-26T12:27:32.712Z,65
2022-08-26T12:28:32.735Z,73
2022-08-26T12:29:32.736Z,66
2022-08-26T12:30:32.801Z,71
2022-08-26T12:31:32.737Z,63
2022-08-26T12:32:32.738Z,58
2022-08-26T12:33:32.755Z,68
2022-08-26T12:34:32.739Z,67
2022-08-26T12:35:32.740Z,58
2022-08-26T12:36:32.781Z,61
2022-08-26T12:37:32.718Z,59
2022-08-26T12:38:32.719Z,50
2022-08-26T12:39:32.720Z,47
2022-08-26T12:40:32.720Z,51
2022-08-26T12:41:32.721Z,48
2022-08-26T12:42:32.721Z,44
2022-08-26T12:43:32.745Z,44
2022-08-26T12:44:32.745Z,45
2022-08-26T12:45:32.786Z,55
2022-08-26T12:46:32.746Z,47
2022-08-26T12:47:32.747Z,48
2022-08-26T12:48:32.748Z,47
2022-08-26T12:49:32.748Z,38
2022-08-26T12:50:32.749Z,40
2022-08-26T12:51:32.749Z,42
2022-08-26T12:52:32.727Z,44
2022-08-26T12:53:32.728Z,43
2022-08-26T12:54:32.729Z,44
2022-08-26T12:55:32.729Z,44
2022-08-26T12:56:32.730Z,42
2022-08-26T12:57:32.730Z,43
2022-08-26T12:58:32.753Z,45
2022-08-26T12:59:32.754Z,51
2022-08-26T13:00:32.755Z,48
2022-08-26T13:01:32.755Z,45
2022-08-26T13:02:32.756Z,37
2022-08-26T13:03:32.756Z,29
2022-08-26T13:04:32.757Z,32
2022-08-26T13:05:32.758Z,36
2022-08-26T13:06:32.758Z,46
2022-08-26T13:07:32.736Z,41
2022-08-26T13:08:32.737Z,43
2022-08-26T13:09:32.737Z,40
2022-08-26T13:10:32.738Z,32
2022-08-26T13:11:32.739Z,42
2022-08-26T13:12:32.739Z,39
2022-08-26T13:13:32.762Z,37
2022-08-26T13:14:32.763Z,34
2022-08-26T13:15:32.763Z,44
2022-08-26T13:16:32.764Z,54
2022-08-26T13:17:32.764Z,61
2022-08-26T13:18:32.765Z,57
2022-08-26T13:19:32.765Z,57
2022-08-26T13:20:32.766Z,61
2022-08-26T13:21:32.767Z,64
2022-08-26T13:22:32.785Z,62
2022-08-26T13:23:32.745Z,60
2022-08-26T13:24:32.746Z,47
2022-08-26T13:25:32.768Z,59
2022-08-26T13:26:32.747Z,50
2022-08-26T13:27:32.747Z,56
2022-08-26T13:28:32.771Z,61
2022-08-26T13:29:32.771Z,59
2022-08-26T13:30:32.771Z,63
2022-08-26T13:31:32.772Z,59
2022-08-26T13:32:32.772Z,62
2022-08-26T13:33:32.773Z,65
2022-08-26T13:34:32.774Z,73
2022-08-26T13:35:32.774Z,74
2022-08-26T13:36:32.775Z,69
2022-08-26T13:37:32.800Z,80
2022-08-26T13:38:32.753Z,71
2022-08-26T13:39:32.754Z,72
2022-08-26T13:40:32.754Z,80
2022-08-26T13:41:32.755Z,71
2022-08-26T13:42:32.755Z,68
2022-08-26T13:43:32.778Z,71
2022-08-26T13:44:32.779Z,65
2022-08-26T13:45:32.779Z,63
2022-08-26T13:46:32.820Z,55
2022-08-26T13:47:32.780Z,55
2022-08-26T13:48:32.781Z,47
2022-08-26T13:49:32.782Z,50
2022-08-26T13:50:32.782Z,54
2022-08-26T13:51:32.783Z,49
2022-08-26T13:52:32.783Z,51
2022-08-26T13:53:32.761Z,60
2022-08-26T13:54:32.762Z,62
2022-08-26T13:55:32.762Z,63
2022-08-26T13:56:32.763Z,55
2022-08-26T13:57:32.763Z,57
2022-08-26T13:58:32.764Z,43
2022-08-26T13:59:32.787Z,58
2022-08-26T14:00:32.787Z,58
2022-08-26T14:01:32.788Z,50
2022-08-26T14:02:32.788Z,50
2022-08-26T14:03:32.789Z,49
2022-08-26T14:04:32.789Z,47
2022-08-26T14:05:32.790Z,48
2022-08-26T14:06:32.791Z,52
2022-08-26T14:07:32.791Z,55
2022-08-26T14:08:32.769Z,60
2022-08-26T14:09:32.770Z,60
2022-08-26T14:10:32.770Z,58
2022-08-26T14:11:32.771Z,45
2022-08-26T14:12:32.771Z,38
2022-08-26T14:13:32.772Z,43
2022-08-26T14:14:32.795Z,42
2022-08-26T14:15:32.795Z,43
2022-08-26T14:16:32.795Z,37
2022-08-26T14:17:32.796Z,48
2022-08-26T14:18:32.797Z,48
2022-08-26T14:19:32.797Z,49